Phoenix, AZ (85083)

7:25 PM MST on September 15, 2014 (GMT -0700)
Norterra | Change Station
CLOSE
Current Station
Personal Weather Station
Location: Phoenix, AZ
Elevation: 1565 ft
Nearby Weather Stations
Active Advisory: Flash Flood Watch

Elev 1565 ft 33.73 °N, 112.10 °W | Updated 3 seconds ago

Partly Cloudy
Partly Cloudy
93.1 °F
Feels Like 92 °F
N
1.0
Wind Variable Wind from NW
Gusts 7.0 mph

Today
High -- | Low -- °F
--% Chance of Precip.
Yesterday
High -- | Low -- °F
Precip. -- in
6:11 AM 6:34 PM
Waning Gibbous, 50% visible
Pressure 29.73 in
Visibility 10.0 miles
Clouds Scattered Clouds 10000 ft
Heat Index 92 °F
Dew Point 57 °F
Humidity 30%
Rainfall 0.00 in
Snow Depth 0 in , 22 in , 0 in
UV 0 out of 12
Pollen 7.00 out of 12
Ozone Good
PM2.5 Good
Flu Activity Not available.
METAR KDVT 160153Z AUTO 30007KT 10SM SCT100 37/13 A2981 RMK AO2 SLP065 T03670133 TSNO

More Conditions Fewer Conditions

Pressure 29.73 in
Visibility 10.0 miles
Clouds Scattered Clouds 10000 ft
Heat Index 92 °F
Dew Point 57 °F
Humidity 30%
Rainfall 0.00 in
Snow Depth 0 in , 22 in , 0 in
UV 0 out of 12
Pollen 7.00 out of 12
Ozone Good
PM2.5 Good
Flu Activity Not available.
METAR KDVT 160153Z AUTO 30007KT 10SM SCT100 37/13 A2981 RMK AO2 SLP065 T03670133 TSNO

More Conditions Fewer Conditions

10-Day Weather Forecast

Almanac

Astronomy

Sep. 15, 2014 Rise Set
Actual Time 6:11 AM MST 6:34 PM MST
Civil Twilight 5:46 AM MST 6:59 PM MST
Nautical Twilight 5:17 AM MST 7:29 PM MST
Astronomical Twilight 4:47 AM MST 7:58 PM MST
Moon 11:37 PM MST (9/15) 12:58 PM MST (9/15)
Length of Visible Light 13h 12m
Length of Day
12h 22m
Tomorrow will be 2m 4s shorter.
Waning Gibbous, 50% of the Moon is Illuminated
Today
Waning Gibbous
Sep 24
New
Oct 1
First Quarter
Oct 8
Full
Oct 15
Last Quarter

Today's Extremes

State Highs State Lows

Community

WunderPhotos

Upload Photos

1,753,666 photos uploaded!

Nearby

Air Quality

  Air Quality AQ Index Pollutant
Yesterday Good
OZONE
Yesterday Good
PM10
Current Good
OZONE
Current Good
PM2.5
Monday Moderate
OZONE
Monday Good
PM10
Monday Good
CO
Tuesday Good
OZONE
Tuesday Good
PM10
Tuesday Good
CO
Wednesday Good
OZONE
Wednesday Good
PM10
Wednesday Good
CO

Snow Depth

Station Depth Elevation
Happy Jack 0 in 7630 ft
Beaver Head 22 in 7990 ft
Maverick Fork 0 in 9200 ft
Workman Creek 1 in 6900 ft
White Horse Lake 0 in 7180 ft

Earthquake Activity

City Distance Mag. Time & Date
No recent earthquake activity has been reported nearby.
Minimum magnitude displayed is 2.5.

Coastal Water Temperatures

Place Temperature
No Stations Reporting

Nearby Weather Stations